Startpagina
METAR-TAF:

METAR-TAF

Vliegvelden :

Curaçao International Airport

Curaçao, Nederlandse Antillen

breedte: 12-12N, lengte: 068-58W, hoogte: 9 m

Actueel weer

Dit bericht is 1 uur en het 3 minuten geleden gemaakt, om 02:00 UTC
Wind 13 kt uit het oosten
Temperatuur 28°C
Vochtigheid 79%
Druk 1015 hPa
Zicht 10 km of meer
Weinig wolken op 1800 ft

METAR: TNCC 170200Z 10013KT 9999 FEW018 28/24 Q1015 NOSIG

Tijdstip: 23:03 (03:03 UTC)

Verwachting

Dit bericht is 3 uur en het 33 minuten geleden gemaakt, om 23:30 UTC
Verwachting geldig van 17 om 00 UTC tot 17 om 24 UTC
Wind 13 kt uit het oosten
Zicht 10 km of meer
Verspreide wolken op 1800 ft
Kans 30% :
Tijdelijke
van 17 om 08 UTC tot 17 om 14 UTC
Gebroken wolken op 1500 ft

TAF: TNCC 162330Z 1700/1724 10013KT 9999 SCT018 PROB30 TEMPO 1708/1714 BKN015

Waarnemingen en weersverwachtingen van meer dan 4000 vliegvelden (METAR en TAF).

De beschikbare stations zijn de gele en rode punten op de kaart.

Ga met uw muis naar het station om de naam te zien.

Klik dan om waarnemingen en weersverwachtingen te zien.

kaart wijzigen: klik op de groene knoppen met een zwart kruis om in te zoomen, op de groene knop met een streepje om uit te zoomen of op de groene pijlen voor aangrenzende kaarten.


METAR-TAF: